sensor_id;sensor_type;location;lat;lon;timestamp;P1;durP1;ratioP1;P2;durP2;ratioP2
7901;SDS011;3996;49.674;10.716;2023-03-01T00:01:46;14.70;;;9.33;;
7901;SDS011;3996;49.674;10.716;2023-03-01T00:04:12;13.77;;;9.80;;
7901;SDS011;3996;49.674;10.716;2023-03-01T00:06:37;16.03;;;9.80;;
7901;SDS011;3996;49.674;10.716;2023-03-01T00:09:03;16.07;;;9.73;;
7901;SDS011;3996;49.674;10.716;2023-03-01T00:11:30;15.57;;;10.50;;
7901;SDS011;3996;49.674;10.716;2023-03-01T00:13:58;16.50;;;10.03;;
7901;SDS011;3996;49.674;10.716;2023-03-01T00:16:29;16.57;;;9.97;;
7901;SDS011;3996;49.674;10.716;2023-03-01T00:18:58;14.53;;;9.77;;
7901;SDS011;3996;49.674;10.716;2023-03-01T00:21:24;18.07;;;10.07;;
7901;SDS011;3996;49.674;10.716;2023-03-01T00:23:50;15.40;;;9.90;;
7901;SDS011;3996;49.674;10.716;2023-03-01T00:26:17;14.57;;;9.90;;
7901;SDS011;3996;49.674;10.716;2023-03-01T00:28:44;17.87;;;10.20;;
7901;SDS011;3996;49.674;10.716;2023-03-01T00:31:13;15.17;;;9.60;;
7901;SDS011;3996;49.674;10.716;2023-03-01T00:33:41;16.77;;;10.23;;
7901;SDS011;3996;49.674;10.716;2023-03-01T00:36:07;15.93;;;9.97;;
7901;SDS011;3996;49.674;10.716;2023-03-01T00:38:37;15.30;;;9.73;;
7901;SDS011;3996;49.674;10.716;2023-03-01T00:41:09;15.83;;;10.20;;
7901;SDS011;3996;49.674;10.716;2023-03-01T00:43:37;14.87;;;9.03;;
7901;SDS011;3996;49.674;10.716;2023-03-01T00:46:12;16.93;;;10.37;;
7901;SDS011;3996;49.674;10.716;2023-03-01T00:48:40;15.63;;;9.90;;
7901;SDS011;3996;49.674;10.716;2023-03-01T00:51:10;16.13;;;9.93;;
7901;SDS011;3996;49.674;10.716;2023-03-01T00:53:40;17.47;;;10.47;;
7901;SDS011;3996;49.674;10.716;2023-03-01T00:56:07;17.30;;;9.83;;
7901;SDS011;3996;49.674;10.716;2023-03-01T00:58:34;14.03;;;9.67;;
7901;SDS011;3996;49.674;10.716;2023-03-01T01:01:01;17.33;;;10.73;;
7901;SDS011;3996;49.674;10.716;2023-03-01T01:03:41;14.50;;;9.73;;
7901;SDS011;3996;49.674;10.716;2023-03-01T01:06:14;16.80;;;10.60;;
7901;SDS011;3996;49.674;10.716;2023-03-01T01:08:43;17.60;;;10.87;;
7901;SDS011;3996;49.674;10.716;2023-03-01T01:11:10;18.40;;;10.30;;
7901;SDS011;3996;49.674;10.716;2023-03-01T01:13:36;18.70;;;11.03;;
7901;SDS011;3996;49.674;10.716;2023-03-01T01:16:02;19.67;;;10.73;;
7901;SDS011;3996;49.674;10.716;2023-03-01T01:18:28;19.83;;;12.27;;
7901;SDS011;3996;49.674;10.716;2023-03-01T01:20:53;15.47;;;10.47;;
7901;SDS011;3996;49.674;10.716;2023-03-01T01:23:19;18.70;;;10.67;;
7901;SDS011;3996;49.674;10.716;2023-03-01T01:25:45;18.70;;;11.20;;
7901;SDS011;3996;49.674;10.716;2023-03-01T01:28:10;17.77;;;10.60;;
7901;SDS011;3996;49.674;10.716;2023-03-01T01:30:36;16.70;;;11.17;;
7901;SDS011;3996;49.674;10.716;2023-03-01T01:33:01;19.23;;;11.40;;
7901;SDS011;3996;49.674;10.716;2023-03-01T01:35:27;18.00;;;10.77;;
7901;SDS011;3996;49.674;10.716;2023-03-01T01:37:53;16.60;;;9.87;;
7901;SDS011;3996;49.674;10.716;2023-03-01T01:40:18;16.10;;;10.00;;
7901;SDS011;3996;49.674;10.716;2023-03-01T01:42:44;16.80;;;9.50;;
7901;SDS011;3996;49.674;10.716;2023-03-01T01:48:10;17.67;;;10.30;;
7901;SDS011;3996;49.674;10.716;2023-03-01T01:50:40;14.67;;;9.73;;
7901;SDS011;3996;49.674;10.716;2023-03-01T01:53:07;17.47;;;9.80;;
7901;SDS011;3996;49.674;10.716;2023-03-01T01:55:37;16.80;;;10.77;;
7901;SDS011;3996;49.674;10.716;2023-03-01T01:58:07;18.20;;;10.23;;
7901;SDS011;3996;49.674;10.716;2023-03-01T02:00:35;15.77;;;9.90;;
7901;SDS011;3996;49.674;10.716;2023-03-01T02:03:05;16.87;;;10.03;;
7901;SDS011;3996;49.674;10.716;2023-03-01T02:05:37;14.93;;;9.60;;
7901;SDS011;3996;49.674;10.716;2023-03-01T02:08:18;15.93;;;10.13;;
7901;SDS011;3996;49.674;10.716;2023-03-01T02:10:45;16.67;;;9.97;;
7901;SDS011;3996;49.674;10.716;2023-03-01T02:13:13;16.00;;;10.30;;
7901;SDS011;3996;49.674;10.716;2023-03-01T02:15:39;16.53;;;9.83;;
7901;SDS011;3996;49.674;10.716;2023-03-01T02:18:06;16.47;;;10.33;;
7901;SDS011;3996;49.674;10.716;2023-03-01T02:23:02;14.63;;;9.27;;
7901;SDS011;3996;49.674;10.716;2023-03-01T02:26:03;17.20;;;10.47;;
7901;SDS011;3996;49.674;10.716;2023-03-01T02:28:32;16.03;;;9.87;;
7901;SDS011;3996;49.674;10.716;2023-03-01T02:31:00;14.90;;;10.00;;
7901;SDS011;3996;49.674;10.716;2023-03-01T02:33:45;14.87;;;9.73;;
7901;SDS011;3996;49.674;10.716;2023-03-01T02:36:17;15.90;;;9.57;;
7901;SDS011;3996;49.674;10.716;2023-03-01T02:38:45;14.90;;;9.47;;
7901;SDS011;3996;49.674;10.716;2023-03-01T02:41:13;14.60;;;9.60;;
7901;SDS011;3996;49.674;10.716;2023-03-01T02:43:41;19.20;;;10.47;;
7901;SDS011;3996;49.674;10.716;2023-03-01T02:46:08;16.60;;;9.90;;
7901;SDS011;3996;49.674;10.716;2023-03-01T02:48:49;16.63;;;9.97;;
7901;SDS011;3996;49.674;10.716;2023-03-01T02:56:17;13.70;;;9.83;;
7901;SDS011;3996;49.674;10.716;2023-03-01T02:58:43;15.73;;;9.77;;
7901;SDS011;3996;49.674;10.716;2023-03-01T03:01:16;17.43;;;10.37;;
7901;SDS011;3996;49.674;10.716;2023-03-01T03:03:45;17.40;;;10.67;;
7901;SDS011;3996;49.674;10.716;2023-03-01T03:06:10;16.10;;;9.63;;
7901;SDS011;3996;49.674;10.716;2023-03-01T03:08:36;14.90;;;9.40;;
7901;SDS011;3996;49.674;10.716;2023-03-01T03:11:02;21.60;;;10.70;;
7901;SDS011;3996;49.674;10.716;2023-03-01T03:13:28;15.40;;;10.47;;
7901;SDS011;3996;49.674;10.716;2023-03-01T03:15:54;14.03;;;9.83;;
7901;SDS011;3996;49.674;10.716;2023-03-01T03:18:21;17.77;;;9.77;;
7901;SDS011;3996;49.674;10.716;2023-03-01T03:20:47;15.40;;;10.00;;
7901;SDS011;3996;49.674;10.716;2023-03-01T03:23:17;17.77;;;10.93;;
7901;SDS011;3996;49.674;10.716;2023-03-01T03:25:49;16.23;;;10.80;;
7901;SDS011;3996;49.674;10.716;2023-03-01T03:28:16;14.83;;;9.80;;
7901;SDS011;3996;49.674;10.716;2023-03-01T03:30:42;15.90;;;9.87;;
7901;SDS011;3996;49.674;10.716;2023-03-01T03:33:09;16.10;;;9.53;;
7901;SDS011;3996;49.674;10.716;2023-03-01T03:35:40;16.07;;;10.10;;
7901;SDS011;3996;49.674;10.716;2023-03-01T03:38:09;15.23;;;9.67;;
7901;SDS011;3996;49.674;10.716;2023-03-01T03:40:44;16.27;;;10.30;;
7901;SDS011;3996;49.674;10.716;2023-03-01T03:43:22;16.13;;;9.93;;
7901;SDS011;3996;49.674;10.716;2023-03-01T03:45:48;16.70;;;9.97;;
7901;SDS011;3996;49.674;10.716;2023-03-01T03:48:15;17.27;;;10.67;;
7901;SDS011;3996;49.674;10.716;2023-03-01T03:50:46;16.67;;;10.50;;
7901;SDS011;3996;49.674;10.716;2023-03-01T03:53:14;17.40;;;10.33;;
7901;SDS011;3996;49.674;10.716;2023-03-01T03:55:40;16.73;;;10.80;;
7901;SDS011;3996;49.674;10.716;2023-03-01T03:58:07;16.33;;;10.67;;
7901;SDS011;3996;49.674;10.716;2023-03-01T04:00:35;15.70;;;10.00;;
7901;SDS011;3996;49.674;10.716;2023-03-01T04:03:05;16.33;;;10.63;;
7901;SDS011;3996;49.674;10.716;2023-03-01T04:05:31;14.67;;;9.63;;
7901;SDS011;3996;49.674;10.716;2023-03-01T04:07:57;17.53;;;10.60;;
7901;SDS011;3996;49.674;10.716;2023-03-01T04:10:41;17.30;;;9.87;;
7901;SDS011;3996;49.674;10.716;2023-03-01T04:13:10;16.10;;;10.07;;
7901;SDS011;3996;49.674;10.716;2023-03-01T04:15:38;17.50;;;9.80;;
7901;SDS011;3996;49.674;10.716;2023-03-01T04:18:04;16.57;;;10.57;;
7901;SDS011;3996;49.674;10.716;2023-03-01T04:20:31;15.17;;;9.57;;
7901;SDS011;3996;49.674;10.716;2023-03-01T04:25:39;16.40;;;10.60;;
7901;SDS011;3996;49.674;10.716;2023-03-01T04:28:06;17.07;;;10.63;;
7901;SDS011;3996;49.674;10.716;2023-03-01T04:30:32;16.23;;;9.37;;
7901;SDS011;3996;49.674;10.716;2023-03-01T04:33:01;17.47;;;10.50;;
7901;SDS011;3996;49.674;10.716;2023-03-01T04:35:28;18.03;;;11.03;;
7901;SDS011;3996;49.674;10.716;2023-03-01T04:37:54;18.87;;;10.93;;
7901;SDS011;3996;49.674;10.716;2023-03-01T04:40:20;19.00;;;10.53;;
7901;SDS011;3996;49.674;10.716;2023-03-01T04:42:46;16.20;;;9.87;;
7901;SDS011;3996;49.674;10.716;2023-03-01T04:45:12;16.23;;;10.27;;
7901;SDS011;3996;49.674;10.716;2023-03-01T04:47:41;15.93;;;9.53;;
7901;SDS011;3996;49.674;10.716;2023-03-01T04:50:09;19.10;;;10.77;;
7901;SDS011;3996;49.674;10.716;2023-03-01T04:52:36;15.50;;;10.47;;
7901;SDS011;3996;49.674;10.716;2023-03-01T04:55:02;18.43;;;11.37;;
7901;SDS011;3996;49.674;10.716;2023-03-01T04:57:28;21.10;;;11.27;;
7901;SDS011;3996;49.674;10.716;2023-03-01T04:59:54;16.43;;;10.40;;
7901;SDS011;3996;49.674;10.716;2023-03-01T05:02:20;17.40;;;10.43;;
7901;SDS011;3996;49.674;10.716;2023-03-01T05:04:46;16.03;;;9.73;;
7901;SDS011;3996;49.674;10.716;2023-03-01T05:07:11;18.37;;;10.70;;
7901;SDS011;3996;49.674;10.716;2023-03-01T05:09:38;17.53;;;10.73;;
7901;SDS011;3996;49.674;10.716;2023-03-01T05:12:04;15.93;;;10.67;;
7901;SDS011;3996;49.674;10.716;2023-03-01T05:14:29;17.23;;;10.90;;
7901;SDS011;3996;49.674;10.716;2023-03-01T05:16:55;18.33;;;10.10;;
7901;SDS011;3996;49.674;10.716;2023-03-01T05:19:28;18.83;;;10.77;;
7901;SDS011;3996;49.674;10.716;2023-03-01T05:21:55;20.83;;;11.07;;
7901;SDS011;3996;49.674;10.716;2023-03-01T05:24:31;18.03;;;10.33;;
7901;SDS011;3996;49.674;10.716;2023-03-01T05:26:58;17.00;;;10.87;;
7901;SDS011;3996;49.674;10.716;2023-03-01T05:29:25;17.80;;;11.10;;
7901;SDS011;3996;49.674;10.716;2023-03-01T05:31:53;19.00;;;10.70;;
7901;SDS011;3996;49.674;10.716;2023-03-01T05:34:27;18.80;;;10.57;;
7901;SDS011;3996;49.674;10.716;2023-03-01T05:36:54;21.13;;;11.20;;
7901;SDS011;3996;49.674;10.716;2023-03-01T05:39:20;18.30;;;11.50;;
7901;SDS011;3996;49.674;10.716;2023-03-01T05:41:47;18.67;;;10.43;;
7901;SDS011;3996;49.674;10.716;2023-03-01T05:44:16;17.30;;;10.63;;
7901;SDS011;3996;49.674;10.716;2023-03-01T05:46:42;18.53;;;10.47;;
7901;SDS011;3996;49.674;10.716;2023-03-01T05:49:07;19.83;;;10.83;;
7901;SDS011;3996;49.674;10.716;2023-03-01T05:51:33;20.50;;;11.93;;
7901;SDS011;3996;49.674;10.716;2023-03-01T05:53:59;19.00;;;12.17;;
7901;SDS011;3996;49.674;10.716;2023-03-01T05:56:24;18.63;;;10.83;;
7901;SDS011;3996;49.674;10.716;2023-03-01T05:58:50;17.53;;;10.57;;
7901;SDS011;3996;49.674;10.716;2023-03-01T06:01:16;16.83;;;10.83;;
7901;SDS011;3996;49.674;10.716;2023-03-01T06:03:41;19.00;;;10.73;;
7901;SDS011;3996;49.674;10.716;2023-03-01T06:06:07;17.30;;;10.80;;
7901;SDS011;3996;49.674;10.716;2023-03-01T06:08:32;17.53;;;11.10;;
7901;SDS011;3996;49.674;10.716;2023-03-01T06:10:58;19.70;;;11.03;;
7901;SDS011;3996;49.674;10.716;2023-03-01T06:13:24;18.60;;;10.77;;
7901;SDS011;3996;49.674;10.716;2023-03-01T06:15:50;15.83;;;10.43;;
7901;SDS011;3996;49.674;10.716;2023-03-01T06:18:15;20.70;;;11.60;;
7901;SDS011;3996;49.674;10.716;2023-03-01T06:20:41;19.57;;;11.33;;
7901;SDS011;3996;49.674;10.716;2023-03-01T06:23:07;16.87;;;10.53;;
7901;SDS011;3996;49.674;10.716;2023-03-01T06:25:35;19.27;;;11.57;;
7901;SDS011;3996;49.674;10.716;2023-03-01T06:28:01;17.50;;;10.67;;
7901;SDS011;3996;49.674;10.716;2023-03-01T06:30:27;17.83;;;10.97;;
7901;SDS011;3996;49.674;10.716;2023-03-01T06:32:53;17.37;;;11.23;;
7901;SDS011;3996;49.674;10.716;2023-03-01T06:35:25;16.17;;;10.67;;
7901;SDS011;3996;49.674;10.716;2023-03-01T06:37:55;16.17;;;10.90;;
7901;SDS011;3996;49.674;10.716;2023-03-01T06:40:20;18.77;;;11.13;;
7901;SDS011;3996;49.674;10.716;2023-03-01T06:42:50;19.03;;;11.13;;
7901;SDS011;3996;49.674;10.716;2023-03-01T06:45:16;15.07;;;10.40;;
7901;SDS011;3996;49.674;10.716;2023-03-01T06:47:43;16.13;;;10.63;;
7901;SDS011;3996;49.674;10.716;2023-03-01T06:50:09;16.00;;;11.27;;
7901;SDS011;3996;49.674;10.716;2023-03-01T06:52:35;15.20;;;11.03;;
7901;SDS011;3996;49.674;10.716;2023-03-01T06:55:01;15.57;;;10.53;;
7901;SDS011;3996;49.674;10.716;2023-03-01T06:57:26;14.77;;;10.80;;
7901;SDS011;3996;49.674;10.716;2023-03-01T06:59:52;16.43;;;11.03;;
7901;SDS011;3996;49.674;10.716;2023-03-01T07:02:18;16.20;;;11.33;;
7901;SDS011;3996;49.674;10.716;2023-03-01T07:04:44;14.57;;;10.53;;
7901;SDS011;3996;49.674;10.716;2023-03-01T07:07:10;16.53;;;10.97;;
7901;SDS011;3996;49.674;10.716;2023-03-01T07:09:36;16.43;;;11.83;;
7901;SDS011;3996;49.674;10.716;2023-03-01T07:12:02;16.63;;;11.83;;
7901;SDS011;3996;49.674;10.716;2023-03-01T07:14:28;15.47;;;10.83;;
7901;SDS011;3996;49.674;10.716;2023-03-01T07:16:53;16.53;;;12.00;;
7901;SDS011;3996;49.674;10.716;2023-03-01T07:19:20;16.03;;;11.60;;
7901;SDS011;3996;49.674;10.716;2023-03-01T07:21:46;15.23;;;10.87;;
7901;SDS011;3996;49.674;10.716;2023-03-01T07:24:12;16.37;;;10.90;;
7901;SDS011;3996;49.674;10.716;2023-03-01T07:26:37;18.77;;;10.50;;
7901;SDS011;3996;49.674;10.716;2023-03-01T07:29:04;16.33;;;11.37;;
7901;SDS011;3996;49.674;10.716;2023-03-01T07:31:31;14.53;;;10.83;;
7901;SDS011;3996;49.674;10.716;2023-03-01T07:33:57;21.23;;;13.03;;
7901;SDS011;3996;49.674;10.716;2023-03-01T07:36:23;16.10;;;11.67;;
7901;SDS011;3996;49.674;10.716;2023-03-01T07:38:49;16.60;;;11.73;;
7901;SDS011;3996;49.674;10.716;2023-03-01T07:41:15;15.60;;;11.23;;
7901;SDS011;3996;49.674;10.716;2023-03-01T07:43:41;15.73;;;11.73;;
7901;SDS011;3996;49.674;10.716;2023-03-01T07:46:06;15.70;;;11.13;;
7901;SDS011;3996;49.674;10.716;2023-03-01T07:48:32;16.77;;;12.23;;
7901;SDS011;3996;49.674;10.716;2023-03-01T07:51:01;17.13;;;11.30;;
7901;SDS011;3996;49.674;10.716;2023-03-01T07:53:28;16.50;;;11.43;;
7901;SDS011;3996;49.674;10.716;2023-03-01T07:58:39;14.93;;;10.80;;
7901;SDS011;3996;49.674;10.716;2023-03-01T08:01:07;16.03;;;11.60;;
7901;SDS011;3996;49.674;10.716;2023-03-01T08:03:35;15.97;;;10.30;;
7901;SDS011;3996;49.674;10.716;2023-03-01T08:06:02;15.10;;;10.87;;
7901;SDS011;3996;49.674;10.716;2023-03-01T08:08:29;14.43;;;11.67;;
7901;SDS011;3996;49.674;10.716;2023-03-01T08:11:01;14.93;;;11.03;;
7901;SDS011;3996;49.674;10.716;2023-03-01T08:13:29;14.77;;;11.33;;
7901;SDS011;3996;49.674;10.716;2023-03-01T08:16:05;14.53;;;11.50;;
7901;SDS011;3996;49.674;10.716;2023-03-01T08:18:39;16.60;;;11.40;;
7901;SDS011;3996;49.674;10.716;2023-03-01T08:21:05;15.30;;;10.83;;
7901;SDS011;3996;49.674;10.716;2023-03-01T08:23:32;15.10;;;12.07;;
7901;SDS011;3996;49.674;10.716;2023-03-01T08:26:11;14.97;;;11.50;;
7901;SDS011;3996;49.674;10.716;2023-03-01T08:28:39;15.03;;;10.60;;
7901;SDS011;3996;49.674;10.716;2023-03-01T08:31:13;17.57;;;12.03;;
7901;SDS011;3996;49.674;10.716;2023-03-01T08:33:40;16.27;;;12.20;;
7901;SDS011;3996;49.674;10.716;2023-03-01T08:36:06;14.83;;;11.63;;
7901;SDS011;3996;49.674;10.716;2023-03-01T08:38:32;15.63;;;12.27;;
7901;SDS011;3996;49.674;10.716;2023-03-01T08:40:59;15.20;;;12.03;;
7901;SDS011;3996;49.674;10.716;2023-03-01T08:43:26;14.47;;;11.50;;
7901;SDS011;3996;49.674;10.716;2023-03-01T08:45:52;18.73;;;11.67;;
7901;SDS011;3996;49.674;10.716;2023-03-01T08:48:18;15.80;;;11.73;;
7901;SDS011;3996;49.674;10.716;2023-03-01T08:50:43;16.33;;;12.23;;
7901;SDS011;3996;49.674;10.716;2023-03-01T08:53:09;14.60;;;12.30;;
7901;SDS011;3996;49.674;10.716;2023-03-01T08:55:34;19.50;;;12.77;;
7901;SDS011;3996;49.674;10.716;2023-03-01T08:58:00;18.63;;;14.57;;
7901;SDS011;3996;49.674;10.716;2023-03-01T09:00:25;17.80;;;13.63;;
7901;SDS011;3996;49.674;10.716;2023-03-01T09:02:51;16.33;;;12.43;;
7901;SDS011;3996;49.674;10.716;2023-03-01T09:05:16;15.17;;;12.03;;
7901;SDS011;3996;49.674;10.716;2023-03-01T09:07:42;16.97;;;12.53;;
7901;SDS011;3996;49.674;10.716;2023-03-01T09:10:08;17.30;;;12.53;;
7901;SDS011;3996;49.674;10.716;2023-03-01T09:12:34;19.37;;;13.47;;
7901;SDS011;3996;49.674;10.716;2023-03-01T09:15:00;16.00;;;12.00;;
7901;SDS011;3996;49.674;10.716;2023-03-01T09:17:25;16.87;;;12.10;;
7901;SDS011;3996;49.674;10.716;2023-03-01T09:19:51;15.40;;;11.67;;
7901;SDS011;3996;49.674;10.716;2023-03-01T09:22:16;14.63;;;11.10;;
7901;SDS011;3996;49.674;10.716;2023-03-01T09:24:42;18.73;;;13.20;;
7901;SDS011;3996;49.674;10.716;2023-03-01T09:27:08;17.37;;;12.73;;
7901;SDS011;3996;49.674;10.716;2023-03-01T09:29:36;17.87;;;11.93;;
7901;SDS011;3996;49.674;10.716;2023-03-01T09:32:02;17.53;;;11.97;;
7901;SDS011;3996;49.674;10.716;2023-03-01T09:34:27;15.77;;;11.53;;
7901;SDS011;3996;49.674;10.716;2023-03-01T09:36:53;15.23;;;11.10;;
7901;SDS011;3996;49.674;10.716;2023-03-01T09:39:19;16.67;;;11.50;;
7901;SDS011;3996;49.674;10.716;2023-03-01T09:41:58;15.03;;;11.20;;
7901;SDS011;3996;49.674;10.716;2023-03-01T09:47:24;18.87;;;12.33;;
7901;SDS011;3996;49.674;10.716;2023-03-01T09:50:06;17.80;;;11.97;;
7901;SDS011;3996;49.674;10.716;2023-03-01T09:55:14;15.70;;;11.20;;
7901;SDS011;3996;49.674;10.716;2023-03-01T09:57:53;16.90;;;12.03;;
7901;SDS011;3996;49.674;10.716;2023-03-01T10:05:41;14.77;;;11.40;;
7901;SDS011;3996;49.674;10.716;2023-03-01T10:10:56;14.57;;;11.40;;
7901;SDS011;3996;49.674;10.716;2023-03-01T10:13:28;17.60;;;12.30;;
7901;SDS011;3996;49.674;10.716;2023-03-01T10:16:18;19.77;;;12.33;;
7901;SDS011;3996;49.674;10.716;2023-03-01T10:18:55;18.80;;;12.27;;
7901;SDS011;3996;49.674;10.716;2023-03-01T10:21:25;17.73;;;11.50;;
7901;SDS011;3996;49.674;10.716;2023-03-01T10:23:53;18.37;;;12.13;;
7901;SDS011;3996;49.674;10.716;2023-03-01T10:28:54;16.70;;;11.53;;
7901;SDS011;3996;49.674;10.716;2023-03-01T10:34:19;16.47;;;11.67;;
7901;SDS011;3996;49.674;10.716;2023-03-01T10:36:49;13.77;;;11.10;;
7901;SDS011;3996;49.674;10.716;2023-03-01T10:39:17;20.13;;;12.83;;
7901;SDS011;3996;49.674;10.716;2023-03-01T10:44:40;17.27;;;11.70;;
7901;SDS011;3996;49.674;10.716;2023-03-01T10:47:15;15.97;;;11.03;;
7901;SDS011;3996;49.674;10.716;2023-03-01T10:49:51;16.70;;;11.77;;
7901;SDS011;3996;49.674;10.716;2023-03-01T10:52:21;15.93;;;11.60;;
7901;SDS011;3996;49.674;10.716;2023-03-01T10:55:31;14.67;;;11.20;;
7901;SDS011;3996;49.674;10.716;2023-03-01T10:57:40;14.53;;;10.87;;
7901;SDS011;3996;49.674;10.716;2023-03-01T11:00:17;16.00;;;11.03;;
7901;SDS011;3996;49.674;10.716;2023-03-01T11:02:47;15.73;;;11.10;;
7901;SDS011;3996;49.674;10.716;2023-03-01T11:05:26;14.03;;;10.53;;
7901;SDS011;3996;49.674;10.716;2023-03-01T11:07:58;15.23;;;11.80;;
7901;SDS011;3996;49.674;10.716;2023-03-01T11:10:30;15.87;;;10.90;;
7901;SDS011;3996;49.674;10.716;2023-03-01T11:13:13;16.77;;;11.20;;
7901;SDS011;3996;49.674;10.716;2023-03-01T11:15:42;16.50;;;11.40;;
7901;SDS011;3996;49.674;10.716;2023-03-01T11:18:18;14.63;;;10.80;;
7901;SDS011;3996;49.674;10.716;2023-03-01T11:20:45;14.70;;;10.70;;
7901;SDS011;3996;49.674;10.716;2023-03-01T11:23:13;16.17;;;10.80;;
7901;SDS011;3996;49.674;10.716;2023-03-01T11:25:41;13.97;;;10.20;;
7901;SDS011;3996;49.674;10.716;2023-03-01T11:28:16;14.57;;;10.67;;
7901;SDS011;3996;49.674;10.716;2023-03-01T11:30:47;14.10;;;10.43;;
7901;SDS011;3996;49.674;10.716;2023-03-01T11:33:40;14.47;;;10.70;;
7901;SDS011;3996;49.674;10.716;2023-03-01T11:41:56;13.67;;;9.63;;
7901;SDS011;3996;49.674;10.716;2023-03-01T11:44:28;14.13;;;10.03;;
7901;SDS011;3996;49.674;10.716;2023-03-01T11:52:22;14.17;;;10.23;;
7901;SDS011;3996;49.674;10.716;2023-03-01T11:57:44;15.23;;;10.67;;
7901;SDS011;3996;49.674;10.716;2023-03-01T12:05:37;15.60;;;9.77;;
7901;SDS011;3996;49.674;10.716;2023-03-01T12:24:23;12.93;;;8.87;;
7901;SDS011;3996;49.674;10.716;2023-03-01T12:29:38;12.57;;;9.17;;
7901;SDS011;3996;49.674;10.716;2023-03-01T12:34:51;11.23;;;8.40;;
7901;SDS011;3996;49.674;10.716;2023-03-01T12:41:09;13.47;;;9.60;;
7901;SDS011;3996;49.674;10.716;2023-03-01T12:46:35;14.27;;;9.63;;
7901;SDS011;3996;49.674;10.716;2023-03-01T12:49:31;14.50;;;9.20;;
7901;SDS011;3996;49.674;10.716;2023-03-01T12:54:35;12.57;;;9.03;;
7901;SDS011;3996;49.674;10.716;2023-03-01T12:57:15;13.30;;;9.43;;
7901;SDS011;3996;49.674;10.716;2023-03-01T13:02:47;11.63;;;9.37;;
7901;SDS011;3996;49.674;10.716;2023-03-01T13:08:08;15.17;;;10.30;;
7901;SDS011;3996;49.674;10.716;2023-03-01T13:11:00;13.90;;;9.93;;
7901;SDS011;3996;49.674;10.716;2023-03-01T13:13:28;13.30;;;9.47;;
7901;SDS011;3996;49.674;10.716;2023-03-01T13:15:55;12.70;;;9.30;;
7901;SDS011;3996;49.674;10.716;2023-03-01T13:20:49;12.03;;;9.23;;
7901;SDS011;3996;49.674;10.716;2023-03-01T13:26:05;13.70;;;10.27;;
7901;SDS011;3996;49.674;10.716;2023-03-01T13:33:50;13.97;;;9.83;;
7901;SDS011;3996;49.674;10.716;2023-03-01T13:39:00;12.17;;;9.80;;
7901;SDS011;3996;49.674;10.716;2023-03-01T13:44:50;14.87;;;10.23;;
7901;SDS011;3996;49.674;10.716;2023-03-01T13:57:42;15.50;;;10.13;;
7901;SDS011;3996;49.674;10.716;2023-03-01T14:03:11;13.90;;;9.93;;
7901;SDS011;3996;49.674;10.716;2023-03-01T14:05:42;17.07;;;10.53;;
7901;SDS011;3996;49.674;10.716;2023-03-01T14:08:19;15.87;;;10.40;;
7901;SDS011;3996;49.674;10.716;2023-03-01T14:11:13;14.40;;;10.50;;
7901;SDS011;3996;49.674;10.716;2023-03-01T14:19:27;13.97;;;10.53;;
7901;SDS011;3996;49.674;10.716;2023-03-01T14:24:47;17.17;;;11.90;;
7901;SDS011;3996;49.674;10.716;2023-03-01T14:27:19;16.77;;;11.23;;
7901;SDS011;3996;49.674;10.716;2023-03-01T14:29:53;15.70;;;10.37;;
7901;SDS011;3996;49.674;10.716;2023-03-01T14:32:25;14.13;;;10.00;;
7901;SDS011;3996;49.674;10.716;2023-03-01T14:34:53;14.27;;;9.93;;
7901;SDS011;3996;49.674;10.716;2023-03-01T14:39:52;14.70;;;10.33;;
7901;SDS011;3996;49.674;10.716;2023-03-01T14:42:18;14.87;;;10.27;;
7901;SDS011;3996;49.674;10.716;2023-03-01T14:44:47;14.43;;;10.00;;
7901;SDS011;3996;49.674;10.716;2023-03-01T14:47:16;14.40;;;10.27;;
7901;SDS011;3996;49.674;10.716;2023-03-01T14:49:48;12.73;;;9.70;;
7901;SDS011;3996;49.674;10.716;2023-03-01T14:52:21;15.07;;;9.83;;
7901;SDS011;3996;49.674;10.716;2023-03-01T14:54:51;13.07;;;9.93;;
7901;SDS011;3996;49.674;10.716;2023-03-01T14:57:23;15.03;;;10.33;;
7901;SDS011;3996;49.674;10.716;2023-03-01T14:59:54;16.23;;;9.70;;
7901;SDS011;3996;49.674;10.716;2023-03-01T15:02:24;13.80;;;10.03;;
7901;SDS011;3996;49.674;10.716;2023-03-01T15:04:54;16.23;;;10.13;;
7901;SDS011;3996;49.674;10.716;2023-03-01T15:07:21;13.27;;;9.60;;
7901;SDS011;3996;49.674;10.716;2023-03-01T15:09:50;17.00;;;11.17;;
7901;SDS011;3996;49.674;10.716;2023-03-01T15:14:57;16.23;;;10.00;;
7901;SDS011;3996;49.674;10.716;2023-03-01T15:17:26;15.93;;;10.43;;
7901;SDS011;3996;49.674;10.716;2023-03-01T15:20:13;13.53;;;9.63;;
7901;SDS011;3996;49.674;10.716;2023-03-01T15:22:50;14.73;;;9.17;;
7901;SDS011;3996;49.674;10.716;2023-03-01T15:25:20;13.03;;;9.50;;
7901;SDS011;3996;49.674;10.716;2023-03-01T15:27:48;13.80;;;10.07;;
7901;SDS011;3996;49.674;10.716;2023-03-01T15:30:26;13.30;;;9.73;;
7901;SDS011;3996;49.674;10.716;2023-03-01T15:33:47;12.73;;;9.93;;
7901;SDS011;3996;49.674;10.716;2023-03-01T15:35:55;12.20;;;9.83;;
7901;SDS011;3996;49.674;10.716;2023-03-01T15:38:35;12.67;;;9.33;;
7901;SDS011;3996;49.674;10.716;2023-03-01T15:41:23;12.30;;;9.43;;
7901;SDS011;3996;49.674;10.716;2023-03-01T15:43:51;13.23;;;10.30;;
7901;SDS011;3996;49.674;10.716;2023-03-01T15:46:30;12.37;;;9.17;;
7901;SDS011;3996;49.674;10.716;2023-03-01T15:49:03;12.27;;;9.10;;
7901;SDS011;3996;49.674;10.716;2023-03-01T15:51:36;12.73;;;9.20;;
7901;SDS011;3996;49.674;10.716;2023-03-01T15:54:06;11.47;;;9.13;;
7901;SDS011;3996;49.674;10.716;2023-03-01T15:56:43;14.23;;;9.40;;
7901;SDS011;3996;49.674;10.716;2023-03-01T15:59:09;13.53;;;9.67;;
7901;SDS011;3996;49.674;10.716;2023-03-01T16:01:38;13.83;;;9.13;;
7901;SDS011;3996;49.674;10.716;2023-03-01T16:04:03;13.37;;;9.13;;
7901;SDS011;3996;49.674;10.716;2023-03-01T16:06:29;14.00;;;8.93;;
7901;SDS011;3996;49.674;10.716;2023-03-01T16:08:55;12.27;;;8.63;;
7901;SDS011;3996;49.674;10.716;2023-03-01T16:11:20;13.63;;;9.30;;
7901;SDS011;3996;49.674;10.716;2023-03-01T16:13:46;13.43;;;9.00;;
7901;SDS011;3996;49.674;10.716;2023-03-01T16:16:13;13.97;;;9.33;;
7901;SDS011;3996;49.674;10.716;2023-03-01T16:18:44;16.27;;;10.10;;
7901;SDS011;3996;49.674;10.716;2023-03-01T16:21:12;19.50;;;12.90;;
7901;SDS011;3996;49.674;10.716;2023-03-01T16:23:40;16.30;;;12.33;;
7901;SDS011;3996;49.674;10.716;2023-03-01T16:26:07;15.90;;;12.13;;
7901;SDS011;3996;49.674;10.716;2023-03-01T16:28:33;15.47;;;10.63;;
7901;SDS011;3996;49.674;10.716;2023-03-01T16:30:58;13.17;;;10.00;;
7901;SDS011;3996;49.674;10.716;2023-03-01T16:33:26;15.83;;;10.63;;
7901;SDS011;3996;49.674;10.716;2023-03-01T16:35:54;17.90;;;11.57;;
7901;SDS011;3996;49.674;10.716;2023-03-01T16:38:20;15.63;;;10.77;;
7901;SDS011;3996;49.674;10.716;2023-03-01T16:40:49;14.87;;;9.87;;
7901;SDS011;3996;49.674;10.716;2023-03-01T16:43:16;13.87;;;10.53;;
7901;SDS011;3996;49.674;10.716;2023-03-01T16:45:41;13.67;;;9.67;;
7901;SDS011;3996;49.674;10.716;2023-03-01T16:48:09;16.80;;;10.37;;
7901;SDS011;3996;49.674;10.716;2023-03-01T16:50:35;12.00;;;9.43;;
7901;SDS011;3996;49.674;10.716;2023-03-01T16:53:01;12.90;;;9.40;;
7901;SDS011;3996;49.674;10.716;2023-03-01T16:55:27;13.50;;;9.20;;
7901;SDS011;3996;49.674;10.716;2023-03-01T16:57:53;13.47;;;9.03;;
7901;SDS011;3996;49.674;10.716;2023-03-01T17:00:19;13.83;;;9.30;;
7901;SDS011;3996;49.674;10.716;2023-03-01T17:02:45;14.47;;;9.00;;
7901;SDS011;3996;49.674;10.716;2023-03-01T17:05:11;14.87;;;9.37;;
7901;SDS011;3996;49.674;10.716;2023-03-01T17:07:37;13.77;;;9.50;;